Time;durP1;ratioP1;P1;durP2;ratioP2;P2;SDS_P1;SDS_P2;PMS_P1;PMS_P2;Temp;Humidity;BMP_temperature;BMP_pressure;BME280_temperature;BME280_humidity;BME280_pressure;Samples;Min_cycle;Max_cycle;Signal;HPM_P1;HPM_P2
2022/03/07 08:27:43;;;;;;;13.33;9.30;;;8.00;70.10;;;;;;4199035;28;20699;-68
2022/03/07 08:30:11;;;;;;;8.93;8.07;;;8.30;69.50;;;;;;4958722;28;20188;-67
2022/03/07 08:32:38;;;;;;;10.83;9.27;;;8.00;68.10;;;;;;4962619;28;20172;-68
2022/03/07 08:35:05;;;;;;;10.67;8.77;;;6.50;72.10;;;;;;4965482;28;20188;-68
2022/03/07 08:37:32;;;;;;;9.63;8.47;;;7.20;72.90;;;;;;4975007;28;20176;-69
2022/03/07 08:39:58;;;;;;;12.63;9.80;;;8.20;67.50;;;;;;4968745;28;20186;-68
2022/03/07 08:42:24;;;;;;;10.57;8.33;;;8.70;67.30;;;;;;4961439;28;20186;-69
2022/03/07 08:44:51;;;;;;;11.40;8.93;;;8.90;64.40;;;;;;4969623;28;20187;-68
2022/03/07 08:47:16;;;;;;;11.20;9.67;;;7.50;66.10;;;;;;4965711;28;20187;-69
2022/03/07 08:49:42;;;;;;;10.77;9.67;;;7.90;69.90;;;;;;4974304;28;20172;-68
2022/03/07 08:52:08;;;;;;;12.80;9.43;;;8.70;66.50;;;;;;4963107;28;20207;-69
2022/03/07 08:54:34;;;;;;;7.17;6.50;;;9.10;63.20;;;;;;4968501;28;20259;-69
2022/03/07 08:57:00;;;;;;;6.97;6.20;;;9.30;60.30;;;;;;4963781;28;20184;-68
2022/03/07 08:59:27;;;;;;;6.97;6.37;;;9.00;60.30;;;;;;4974928;28;20670;-68
2022/03/07 09:01:54;;;;;;;8.63;7.10;;;9.50;58.80;;;;;;4964906;28;20216;-69
2022/03/07 09:04:20;;;;;;;9.07;8.17;;;8.90;59.80;;;;;;4970305;28;20172;-69
2022/03/07 09:06:46;;;;;;;8.53;7.73;;;9.10;60.40;;;;;;4971815;28;20279;-68
2022/03/07 09:09:12;;;;;;;5.07;4.57;;;8.40;60.70;;;;;;4963435;28;20201;-69
2022/03/07 09:11:38;;;;;;;7.23;5.73;;;7.20;58.90;;;;;;4951757;28;20316;-68
2022/03/07 09:14:04;;;;;;;5.30;4.80;;;6.50;63.10;;;;;;4949406;28;20189;-68
2022/03/07 09:16:29;;;;;;;12.03;5.20;;;6.90;61.30;;;;;;4954463;28;20185;-68
2022/03/07 09:18:55;;;;;;;4.83;3.93;;;7.40;59.40;;;;;;4943160;28;20188;-67
2022/03/07 09:21:21;;;;;;;5.00;4.30;;;6.50;59.60;;;;;;4954876;28;20263;-69
2022/03/07 09:23:46;;;;;;;4.63;3.60;;;6.30;61.10;;;;;;4953049;28;20210;-66
2022/03/07 09:26:13;;;;;;;7.37;4.60;;;6.30;60.50;;;;;;4965686;28;20189;-69
2022/03/07 09:28:39;;;;;;;4.77;4.30;;;7.00;60.40;;;;;;4953777;28;20233;-67
2022/03/07 09:31:06;;;;;;;4.43;4.03;;;7.20;59.00;;;;;;4950119;28;20203;-69
2022/03/07 09:33:32;;;;;;;5.37;3.37;;;6.80;60.20;;;;;;4939547;28;20192;-68
2022/03/07 09:35:58;;;;;;;4.57;4.17;;;6.30;59.40;;;;;;4951853;28;20219;-68
2022/03/07 09:38:24;;;;;;;5.33;4.83;;;6.00;61.40;;;;;;4952873;28;20271;-68
2022/03/07 09:40:52;;;;;;;5.10;4.70;;;6.60;61.70;;;;;;4952423;28;20299;-69
2022/03/07 09:43:18;;;;;;;8.77;4.33;;;7.30;59.60;;;;;;4952941;28;20195;-68
2022/03/07 09:45:44;;;;;;;5.43;4.23;;;6.30;58.40;;;;;;4952318;28;20184;-66
2022/03/07 09:48:11;;;;;;;8.43;4.73;;;6.10;59.70;;;;;;4946775;28;20668;-67
2022/03/07 09:50:40;;;;;;;10.80;5.27;;;6.10;61.30;;;;;;4953062;28;20276;-68
2022/03/07 09:53:06;;;;;;;5.80;4.83;;;6.60;60.40;;;;;;4942459;28;20177;-69
2022/03/07 09:55:32;;;;;;;5.17;4.67;;;6.40;60.30;;;;;;4947226;28;20199;-68
2022/03/07 09:57:58;;;;;;;5.27;4.67;;;6.80;60.10;;;;;;4953817;28;20283;-67
2022/03/07 10:00:24;;;;;;;4.93;4.53;;;7.30;58.80;;;;;;4951831;28;20243;-68
2022/03/07 10:03:02;;;;;;;5.57;4.80;;;7.30;58.80;;;;;;4952811;28;20192;-67
2022/03/07 10:05:40;;;;;;;7.00;5.30;;;7.30;58.20;;;;;;4953960;28;20180;-68
2022/03/07 10:08:07;;;;;;;6.50;5.77;;;6.20;59.40;;;;;;4952301;28;20215;-67
2022/03/07 10:10:36;;;;;;;4.70;4.23;;;6.30;61.80;;;;;;4952810;28;20215;-68
2022/03/07 10:13:06;;;;;;;5.77;5.27;;;5.90;62.80;;;;;;4953757;28;20196;-67
2022/03/07 10:15:32;;;;;;;7.33;6.10;;;5.70;64.00;;;;;;4952135;28;20176;-68
2022/03/07 10:17:57;;;;;;;7.00;5.57;;;6.40;62.80;;;;;;4952935;28;20192;-66
2022/03/07 10:20:24;;;;;;;5.87;5.20;;;6.90;62.00;;;;;;4950986;28;20200;-68
2022/03/07 10:22:53;;;;;;;5.90;5.40;;;6.00;62.30;;;;;;4952718;28;20196;-67
2022/03/07 10:25:27;;;;;;;5.77;5.17;;;6.50;62.80;;;;;;4953274;28;20286;-67
2022/03/07 10:27:54;;;;;;;8.27;5.77;;;6.30;62.90;;;;;;4952425;28;20232;-67
2022/03/07 10:30:22;;;;;;;7.00;6.10;;;5.70;65.40;;;;;;4951244;28;20176;-68
2022/03/07 10:32:52;;;;;;;7.00;5.57;;;6.40;65.10;;;;;;4952859;28;20656;-68
2022/03/07 10:35:36;;;;;;;10.37;5.53;;;6.60;63.60;;;;;;4952658;28;20248;-67
2022/03/07 10:38:05;;;;;;;13.53;9.43;;;6.20;64.80;;;;;;4949465;28;20192;-68
2022/03/07 10:40:34;;;;;;;11.17;7.60;;;6.50;64.70;;;;;;4952644;28;20571;-68
2022/03/07 10:43:01;;;;;;;6.60;6.00;;;6.90;63.50;;;;;;4951409;28;20192;-68
2022/03/07 10:45:28;;;;;;;6.60;6.00;;;6.60;63.70;;;;;;4952081;28;20172;-67
2022/03/07 10:47:57;;;;;;;8.53;6.00;;;6.50;65.10;;;;;;4952148;28;20191;-68
2022/03/07 10:50:24;;;;;;;9.73;6.23;;;6.90;63.40;;;;;;4951404;28;20636;-67
2022/03/07 10:52:52;;;;;;;7.80;5.50;;;7.40;63.00;;;;;;4951770;28;20183;-68
2022/03/07 10:55:29;;;;;;;6.50;5.87;;;7.50;60.00;;;;;;4952117;28;20258;-68
2022/03/07 10:58:05;;;;;;;8.07;5.30;;;7.40;59.70;;;;;;4952457;28;20179;-68
2022/03/07 11:00:31;;;;;;;5.90;5.37;;;6.70;61.90;;;;;;4951810;28;20315;-67
2022/03/07 11:02:56;;;;;;;11.03;6.57;;;7.20;62.00;;;;;;4953567;28;20275;-67
2022/03/07 11:05:22;;;;;;;7.67;5.10;;;7.10;60.50;;;;;;4949112;28;20233;-67
2022/03/07 11:07:51;;;;;;;5.97;4.53;;;6.80;61.00;;;;;;4954492;28;20550;-68
2022/03/07 11:10:18;;;;;;;6.47;5.10;;;7.00;61.50;;;;;;4951561;28;20197;-68
2022/03/07 11:12:44;;;;;;;6.43;5.83;;;7.30;61.50;;;;;;4952839;28;20612;-67
2022/03/07 11:15:14;;;;;;;7.90;6.60;;;7.20;60.60;;;;;;4954145;28;20177;-67
2022/03/07 11:17:44;;;;;;;5.57;5.07;;;6.80;61.60;;;;;;4951655;28;20621;-68
2022/03/07 11:20:12;;;;;;;5.70;5.30;;;7.10;60.90;;;;;;4950879;28;20207;-68
2022/03/07 11:22:38;;;;;;;5.17;4.67;;;6.70;62.00;;;;;;4949376;28;20218;-68
2022/03/07 11:25:06;;;;;;;5.03;4.60;;;6.20;64.10;;;;;;4942824;28;20628;-68
2022/03/07 11:27:35;;;;;;;7.77;5.60;;;6.00;64.70;;;;;;4951712;28;20612;-68
2022/03/07 11:30:11;;;;;;;7.33;6.20;;;5.80;65.80;;;;;;4955212;28;20699;-67
2022/03/07 11:32:38;;;;;;;5.87;5.23;;;5.80;66.30;;;;;;4950405;29;20267;-67
2022/03/07 11:35:04;;;;;;;6.30;5.70;;;6.40;64.70;;;;;;4956667;28;20232;-67
2022/03/07 11:37:31;;;;;;;6.40;5.77;;;6.00;65.00;;;;;;4956033;28;20184;-69
2022/03/07 11:39:58;;;;;;;5.70;5.10;;;6.30;66.00;;;;;;4957220;28;20300;-68
2022/03/07 11:42:37;;;;;;;8.37;6.40;;;6.10;64.80;;;;;;4955398;28;20213;-67
2022/03/07 11:45:07;;;;;;;11.47;6.13;;;6.50;66.10;;;;;;4952669;28;20176;-67
2022/03/07 11:47:37;;;;;;;11.27;7.50;;;6.20;66.20;;;;;;4937958;29;20611;-68
2022/03/07 11:50:04;;;;;;;7.90;7.03;;;6.70;64.80;;;;;;4937092;29;20201;-67
2022/03/07 11:52:30;;;;;;;7.73;6.57;;;6.30;65.50;;;;;;4937224;29;20177;-69
2022/03/07 11:54:58;;;;;;;12.60;7.57;;;6.30;65.00;;;;;;4953045;29;20217;-68
2022/03/07 11:57:41;;;;;;;5.90;5.33;;;6.30;64.50;;;;;;4956487;28;20172;-67
2022/03/07 12:00:21;;;;;;;6.70;6.03;;;6.10;65.10;;;;;;4956599;28;20191;-68
2022/03/07 12:02:50;;;;;;;6.90;6.17;;;6.00;66.50;;;;;;4956427;28;20176;-67
2022/03/07 12:05:25;;;;;;;6.53;5.93;;;6.40;65.70;;;;;;4955738;28;20165;-67
2022/03/07 12:07:52;;;;;;;10.70;6.50;;;6.40;66.50;;;;;;4956644;28;20172;-67
2022/03/07 12:10:19;;;;;;;5.20;4.70;;;6.70;64.60;;;;;;4955568;28;20200;-67
2022/03/07 12:12:44;;;;;;;7.13;6.47;;;6.60;63.70;;;;;;4956586;28;20188;-67
2022/03/07 12:15:13;;;;;;;6.63;6.00;;;6.30;65.00;;;;;;4955392;29;20173;-67
2022/03/07 12:17:39;;;;;;;7.40;5.83;;;6.30;66.80;;;;;;4956274;28;20356;-66
2022/03/07 12:20:06;;;;;;;6.03;5.43;;;6.30;66.20;;;;;;4956384;28;20260;-67
2022/03/07 12:22:34;;;;;;;14.90;8.03;;;6.00;67.10;;;;;;4956143;28;20183;-67
2022/03/07 12:25:02;;;;;;;4.83;4.43;;;6.00;68.10;;;;;;4956265;28;20172;-67
2022/03/07 12:27:28;;;;;;;6.10;5.57;;;6.00;67.50;;;;;;4952791;28;20243;-67
2022/03/07 12:29:53;;;;;;;6.40;5.80;;;6.00;67.60;;;;;;4952307;28;20188;-66
2022/03/07 12:32:20;;;;;;;7.47;6.10;;;6.10;67.40;;;;;;4955923;28;20168;-67
2022/03/07 12:34:46;;;;;;;9.33;7.43;;;6.00;67.20;;;;;;4954718;28;20184;-67
2022/03/07 12:37:18;;;;;;;6.00;5.50;;;5.90;67.50;;;;;;4954160;28;20185;-67
2022/03/07 12:39:59;;;;;;;5.57;5.07;;;5.90;67.40;;;;;;4952524;29;20192;-67
2022/03/07 12:42:29;;;;;;;7.17;6.03;;;6.00;66.20;;;;;;4950621;28;20212;-68
2022/03/07 12:44:59;;;;;;;10.83;7.23;;;6.00;66.20;;;;;;4947358;29;20191;-68
2022/03/07 12:47:31;;;;;;;6.47;5.17;;;6.30;66.20;;;;;;4952641;29;20188;-68
2022/03/07 12:49:58;;;;;;;13.07;10.23;;;6.10;65.10;;;;;;4955037;28;20249;-67
2022/03/07 12:52:30;;;;;;;9.43;6.53;;;5.90;66.00;;;;;;4954023;28;20224;-67
2022/03/07 12:54:57;;;;;;;6.53;5.97;;;5.90;66.40;;;;;;4955755;29;20177;-68
2022/03/07 12:57:23;;;;;;;9.07;6.90;;;6.00;66.10;;;;;;4949414;28;20261;-68
2022/03/07 12:59:56;;;;;;;6.13;5.10;;;6.00;66.40;;;;;;4936242;29;20173;-68
2022/03/07 13:02:22;;;;;;;6.77;5.90;;;6.10;65.70;;;;;;4946626;29;20246;-68
2022/03/07 13:04:54;;;;;;;9.20;6.13;;;6.10;64.80;;;;;;4954705;28;20252;-67
2022/03/07 13:07:19;;;;;;;6.13;5.30;;;6.00;65.60;;;;;;4954471;28;20283;-67
2022/03/07 13:09:45;;;;;;;12.07;5.57;;;6.00;65.80;;;;;;4953155;28;20711;-67
2022/03/07 13:12:11;;;;;;;10.63;6.80;;;6.00;65.70;;;;;;4952458;29;20177;-67
2022/03/07 13:14:38;;;;;;;12.50;7.57;;;5.80;66.60;;;;;;4953139;29;20192;-68
2022/03/07 13:17:17;;;;;;;7.20;6.13;;;6.00;67.10;;;;;;4954628;28;20184;-67
2022/03/07 13:19:44;;;;;;;9.20;7.23;;;6.00;66.90;;;;;;4955044;28;20207;-68
2022/03/07 13:22:10;;;;;;;5.90;5.30;;;6.00;67.50;;;;;;4955213;28;20204;-68
2022/03/07 13:24:37;;;;;;;6.87;5.70;;;6.00;66.20;;;;;;4953742;28;20189;-67
2022/03/07 13:27:13;;;;;;;6.23;5.63;;;6.00;66.10;;;;;;4953797;28;20527;-67
2022/03/07 13:29:42;;;;;;;6.13;5.50;;;5.90;66.20;;;;;;4953966;28;20184;-67
2022/03/07 13:32:18;;;;;;;9.07;6.73;;;6.00;65.90;;;;;;4954479;28;20180;-67
2022/03/07 13:34:45;;;;;;;4.37;3.97;;;6.10;66.30;;;;;;4948687;29;20655;-67
2022/03/07 13:37:12;;;;;;;6.90;5.07;;;6.10;66.50;;;;;;4954029;28;20189;-67
2022/03/07 13:39:39;;;;;;;10.27;5.73;;;6.10;66.60;;;;;;4946180;28;20544;-68
2022/03/07 13:42:10;;;;;;;9.00;6.90;;;6.20;65.70;;;;;;4953573;28;20239;-68
2022/03/07 13:44:52;;;;;;;6.30;5.70;;;6.20;65.70;;;;;;4955201;28;20585;-68
2022/03/07 13:47:24;;;;;;;10.07;6.23;;;6.00;65.30;;;;;;4954038;28;20176;-67
2022/03/07 13:49:53;;;;;;;8.77;7.93;;;6.00;65.80;;;;;;4935148;29;20169;-68
2022/03/07 13:52:31;;;;;;;9.27;6.50;;;6.10;66.90;;;;;;4940592;29;20654;-68
2022/03/07 13:54:59;;;;;;;6.43;5.83;;;6.30;65.00;;;;;;4955031;28;20204;-68
2022/03/07 13:57:41;;;;;;;6.63;5.97;;;6.20;64.40;;;;;;4954340;28;20185;-69
2022/03/07 14:00:16;;;;;;;9.53;6.97;;;6.40;64.60;;;;;;4934795;29;20237;-67
2022/03/07 14:03:01;;;;;;;8.33;6.43;;;6.30;63.70;;;;;;4951787;29;20219;-68
2022/03/07 14:05:46;;;;;;;8.57;6.60;;;6.40;63.50;;;;;;4953995;28;20172;-68
2022/03/07 14:08:13;;;;;;;5.50;4.70;;;6.50;63.60;;;;;;4952119;28;20315;-69
2022/03/07 14:10:40;;;;;;;7.13;6.07;;;6.40;64.50;;;;;;4948339;29;20197;-68
2022/03/07 14:13:06;;;;;;;5.50;5.03;;;6.40;65.00;;;;;;4953055;28;20189;-67
2022/03/07 14:15:40;;;;;;;10.83;8.23;;;6.20;64.80;;;;;;4954113;28;20211;-68
2022/03/07 14:18:07;;;;;;;8.80;7.90;;;6.30;65.70;;;;;;4954961;28;20172;-69
2022/03/07 14:20:36;;;;;;;8.17;6.83;;;6.50;65.80;;;;;;4953108;28;20312;-67
2022/03/07 14:23:03;;;;;;;10.43;7.03;;;6.60;65.20;;;;;;4953567;28;20184;-68
2022/03/07 14:25:29;;;;;;;9.43;7.13;;;6.70;65.70;;;;;;4954185;28;20164;-67
2022/03/07 14:27:56;;;;;;;8.67;6.43;;;6.70;63.20;;;;;;4951777;28;20700;-67
2022/03/07 14:30:22;;;;;;;6.97;6.27;;;6.50;63.70;;;;;;4934476;29;20260;-67
2022/03/07 14:32:48;;;;;;;6.37;5.77;;;6.40;64.00;;;;;;4942345;29;20180;-68
2022/03/07 14:35:15;;;;;;;6.30;5.50;;;6.40;63.20;;;;;;4953488;28;20257;-68
2022/03/07 14:37:41;;;;;;;8.50;6.60;;;6.50;62.70;;;;;;4937854;29;20668;-67
2022/03/07 14:40:12;;;;;;;5.17;4.63;;;6.50;62.70;;;;;;4949836;29;20504;-67
2022/03/07 14:42:40;;;;;;;6.73;5.90;;;6.50;61.40;;;;;;4953620;28;20192;-68
2022/03/07 14:45:07;;;;;;;6.03;5.43;;;6.50;61.00;;;;;;4953547;28;20263;-68
2022/03/07 14:47:33;;;;;;;7.40;6.30;;;6.40;61.80;;;;;;4954129;28;20267;-68
2022/03/07 14:49:59;;;;;;;10.20;7.97;;;6.50;62.60;;;;;;4953919;28;20176;-68
2022/03/07 14:52:25;;;;;;;10.57;6.50;;;6.60;63.20;;;;;;4953938;28;20284;-68
2022/03/07 14:54:52;;;;;;;7.53;6.40;;;6.70;63.30;;;;;;4952568;28;20672;-68
2022/03/07 14:57:18;;;;;;;7.93;6.70;;;6.60;62.60;;;;;;4952500;28;20180;-67
2022/03/07 14:59:45;;;;;;;7.00;6.40;;;6.70;62.70;;;;;;4952508;28;20267;-68
2022/03/07 15:02:12;;;;;;;8.73;6.57;;;6.70;61.80;;;;;;4954873;28;20216;-68
2022/03/07 15:04:38;;;;;;;7.33;6.63;;;6.80;62.30;;;;;;4957137;28;20172;-68
2022/03/07 15:07:04;;;;;;;5.60;4.97;;;6.80;61.70;;;;;;4949457;28;20184;-68
2022/03/07 15:09:29;;;;;;;9.13;6.57;;;6.70;61.30;;;;;;4955946;28;20228;-70
2022/03/07 15:11:56;;;;;;;5.93;5.33;;;6.60;61.80;;;;;;4953263;28;20212;-68
2022/03/07 15:14:23;;;;;;;7.73;4.33;;;6.50;61.80;;;;;;4951487;28;20177;-69
2022/03/07 15:16:53;;;;;;;5.53;5.03;;;6.60;61.90;;;;;;4947128;28;20180;-68
2022/03/07 15:19:19;;;;;;;11.10;6.97;;;6.70;61.90;;;;;;4947328;28;20178;-69
2022/03/07 15:21:47;;;;;;;12.57;9.03;;;6.70;61.90;;;;;;4942248;28;20295;-67
2022/03/07 15:24:14;;;;;;;10.57;7.57;;;6.60;62.70;;;;;;4942285;28;20250;-69
2022/03/07 15:26:42;;;;;;;6.07;5.03;;;6.70;63.20;;;;;;4945804;28;20193;-68
2022/03/07 15:29:10;;;;;;;6.63;5.97;;;6.70;61.90;;;;;;4953350;28;20177;-68
2022/03/07 15:31:37;;;;;;;9.93;7.27;;;6.80;62.60;;;;;;4945190;28;20217;-68
2022/03/07 15:34:03;;;;;;;7.40;6.50;;;6.90;62.20;;;;;;4950658;28;20188;-68
2022/03/07 15:36:29;;;;;;;7.23;6.50;;;6.90;62.20;;;;;;4951702;28;20644;-67
2022/03/07 15:38:58;;;;;;;9.30;7.10;;;6.90;62.50;;;;;;4944348;28;20205;-68
2022/03/07 15:41:24;;;;;;;18.07;9.50;;;6.80;62.50;;;;;;4952987;29;20224;-68
2022/03/07 15:43:52;;;;;;;10.33;7.90;;;6.80;62.20;;;;;;4946749;28;20178;-68
2022/03/07 15:46:19;;;;;;;8.10;7.30;;;6.70;62.20;;;;;;4942220;28;20255;-68
2022/03/07 15:48:45;;;;;;;11.63;8.27;;;6.70;62.70;;;;;;4944814;28;20272;-68
2022/03/07 15:51:15;;;;;;;9.97;7.50;;;6.80;63.00;;;;;;4951303;29;20183;-68
2022/03/07 15:53:41;;;;;;;9.70;7.30;;;6.90;63.00;;;;;;4956280;28;20185;-68
2022/03/07 15:56:08;;;;;;;6.40;5.80;;;7.00;63.00;;;;;;4955805;28;20307;-68
2022/03/07 15:58:35;;;;;;;7.10;6.43;;;6.80;62.10;;;;;;4957017;28;20228;-69
2022/03/07 16:01:01;;;;;;;9.47;6.97;;;6.60;63.10;;;;;;4955699;28;20220;-68
2022/03/07 16:03:26;;;;;;;11.60;7.77;;;6.70;63.00;;;;;;4946081;28;20253;-68
2022/03/07 16:05:52;;;;;;;9.83;7.23;;;6.70;63.30;;;;;;4955733;28;20172;-68
2022/03/07 16:08:19;;;;;;;8.57;7.30;;;6.80;63.30;;;;;;4950552;28;20185;-68
2022/03/07 16:10:44;;;;;;;8.97;5.83;;;6.80;63.70;;;;;;4955810;28;20184;-67
2022/03/07 16:13:16;;;;;;;12.47;7.83;;;6.70;63.20;;;;;;4955256;28;20181;-68
2022/03/07 16:15:45;;;;;;;10.10;7.17;;;6.70;63.60;;;;;;4954502;28;20215;-68
2022/03/07 16:18:10;;;;;;;8.67;6.57;;;6.70;62.90;;;;;;4955653;28;20223;-68
2022/03/07 16:20:37;;;;;;;9.87;7.47;;;6.70;63.00;;;;;;4956006;28;20232;-67
2022/03/07 16:23:04;;;;;;;11.67;5.90;;;6.60;63.50;;;;;;4955759;28;20181;-68
2022/03/07 16:25:29;;;;;;;9.37;6.67;;;6.60;64.60;;;;;;4956144;29;20219;-68
2022/03/07 16:27:55;;;;;;;10.43;6.77;;;6.60;64.90;;;;;;4955923;29;20315;-68
2022/03/07 16:30:22;;;;;;;14.50;9.13;;;6.60;65.20;;;;;;4955675;29;20181;-67
2022/03/07 16:32:48;;;;;;;7.17;6.47;;;6.60;66.10;;;;;;4953907;29;20186;-68
2022/03/07 16:35:14;;;;;;;11.27;8.60;;;6.60;66.20;;;;;;4955809;29;20181;-68
2022/03/07 16:37:40;;;;;;;13.00;8.33;;;6.60;67.50;;;;;;4956458;29;20327;-68
2022/03/07 16:40:06;;;;;;;8.67;7.60;;;6.70;67.50;;;;;;4955626;28;20181;-68
2022/03/07 16:42:32;;;;;;;10.27;6.33;;;6.60;67.10;;;;;;4954336;29;20252;-67
2022/03/07 16:44:58;;;;;;;6.23;5.53;;;6.60;67.10;;;;;;4955717;28;20176;-67
2022/03/07 16:47:24;;;;;;;9.40;5.87;;;6.50;67.20;;;;;;4955479;28;20671;-68
2022/03/07 16:49:50;;;;;;;8.73;7.13;;;6.50;67.30;;;;;;4955355;29;20180;-68
2022/03/07 16:52:15;;;;;;;8.53;7.60;;;6.40;67.60;;;;;;4955666;28;20177;-68
2022/03/07 16:54:41;;;;;;;7.47;6.77;;;6.40;67.80;;;;;;4953665;29;20267;-68
2022/03/07 16:57:07;;;;;;;9.97;6.67;;;6.40;67.70;;;;;;4955864;29;20529;-68
2022/03/07 16:59:34;;;;;;;7.17;6.37;;;6.40;68.20;;;;;;4955634;28;20195;-67
2022/03/07 17:02:04;;;;;;;5.80;5.23;;;6.40;67.60;;;;;;4955786;28;20220;-68
2022/03/07 17:04:30;;;;;;;7.87;7.10;;;6.30;67.50;;;;;;4955361;29;20203;-68
2022/03/07 17:06:55;;;;;;;8.70;6.20;;;6.30;68.20;;;;;;4955817;29;20181;-68
2022/03/07 17:09:21;;;;;;;9.30;7.00;;;6.30;68.40;;;;;;4955076;28;20672;-67
2022/03/07 17:11:48;;;;;;;9.77;7.93;;;6.30;69.10;;;;;;4955474;28;20232;-67
2022/03/07 17:14:14;;;;;;;7.80;6.83;;;6.30;69.60;;;;;;4955788;28;20173;-70
2022/03/07 17:16:40;;;;;;;9.53;7.30;;;6.30;69.20;;;;;;4953270;29;20200;-67
2022/03/07 17:19:06;;;;;;;8.57;7.20;;;6.20;69.70;;;;;;4955534;28;20509;-68
2022/03/07 17:21:32;;;;;;;11.90;7.30;;;6.20;70.00;;;;;;4955019;29;20223;-67
2022/03/07 17:23:58;;;;;;;6.30;5.70;;;6.20;69.80;;;;;;4954261;28;20169;-68
2022/03/07 17:26:24;;;;;;;6.97;5.60;;;6.20;68.90;;;;;;4955098;28;20519;-67
2022/03/07 17:28:50;;;;;;;10.57;7.20;;;6.20;68.50;;;;;;4954506;28;20220;-68
2022/03/07 17:31:15;;;;;;;8.60;6.47;;;6.20;68.80;;;;;;4953520;29;20176;-67
2022/03/07 17:33:41;;;;;;;9.43;7.57;;;6.20;68.70;;;;;;4955128;29;20223;-68
2022/03/07 17:36:07;;;;;;;7.17;5.90;;;6.20;69.10;;;;;;4953712;29;20176;-68
2022/03/07 17:38:33;;;;;;;11.30;7.57;;;6.10;69.00;;;;;;4954716;29;20180;-68
2022/03/07 17:40:58;;;;;;;10.50;7.73;;;6.10;69.50;;;;;;4954678;29;20680;-67
2022/03/07 17:43:24;;;;;;;7.90;6.93;;;6.00;70.30;;;;;;4955190;29;20219;-68
2022/03/07 17:45:50;;;;;;;10.03;7.67;;;6.00;69.90;;;;;;4955149;28;20180;-69
2022/03/07 17:48:15;;;;;;;8.43;7.00;;;6.00;70.40;;;;;;4955053;28;20232;-68
2022/03/07 17:50:41;;;;;;;7.50;6.20;;;6.00;70.30;;;;;;4954950;28;20232;-68
2022/03/07 17:53:08;;;;;;;9.57;7.30;;;6.00;70.30;;;;;;4953109;29;20283;-68
2022/03/07 17:55:40;;;;;;;19.00;12.27;;;6.00;70.30;;;;;;4954978;28;20181;-67
2022/03/07 17:58:07;;;;;;;7.90;5.80;;;6.00;70.80;;;;;;4953397;28;20580;-67
2022/03/07 18:00:33;;;;;;;9.37;7.03;;;5.90;70.90;;;;;;4955242;29;20667;-67
2022/03/07 18:02:59;;;;;;;8.60;6.27;;;5.90;71.30;;;;;;4954146;29;20183;-68
2022/03/07 18:05:25;;;;;;;11.67;7.80;;;5.80;71.30;;;;;;4955040;28;20173;-68
2022/03/07 18:07:51;;;;;;;9.07;7.20;;;5.80;72.10;;;;;;4954500;28;20173;-68
2022/03/07 18:10:17;;;;;;;11.10;7.33;;;5.80;71.90;;;;;;4954680;28;20278;-68
2022/03/07 18:12:43;;;;;;;8.00;7.20;;;5.80;72.20;;;;;;4955252;29;20535;-67
2022/03/07 18:15:09;;;;;;;11.93;7.00;;;5.80;72.20;;;;;;4953436;29;20187;-68
2022/03/07 18:17:35;;;;;;;10.50;7.33;;;5.80;72.50;;;;;;4954489;29;20184;-68
2022/03/07 18:20:02;;;;;;;9.63;7.20;;;5.70;72.70;;;;;;4954720;29;20263;-68
2022/03/07 18:22:27;;;;;;;8.37;7.20;;;5.70;73.10;;;;;;4953907;29;20227;-67
2022/03/07 18:24:54;;;;;;;10.90;7.43;;;5.60;73.30;;;;;;4954838;29;20172;-68
2022/03/07 18:27:19;;;;;;;9.17;8.00;;;5.70;73.70;;;;;;4954768;28;20307;-68
2022/03/07 18:29:45;;;;;;;8.60;7.70;;;5.70;73.60;;;;;;4954924;29;20280;-68
2022/03/07 18:32:13;;;;;;;11.40;7.70;;;5.60;73.80;;;;;;4954890;29;20700;-68
2022/03/07 18:34:39;;;;;;;19.50;11.17;;;5.70;73.60;;;;;;4954302;28;20169;-68
2022/03/07 18:37:07;;;;;;;11.47;7.07;;;5.60;73.60;;;;;;4953657;28;20165;-68
2022/03/07 18:39:37;;;;;;;12.40;7.63;;;5.60;73.30;;;;;;4954635;28;20200;-68
2022/03/07 18:42:05;;;;;;;13.17;8.60;;;5.60;73.10;;;;;;4953641;28;20212;-68
2022/03/07 18:44:30;;;;;;;11.07;8.40;;;5.60;73.20;;;;;;4954780;29;20181;-68
2022/03/07 18:46:56;;;;;;;13.27;9.20;;;5.60;72.80;;;;;;4954462;29;20173;-68
2022/03/07 18:49:22;;;;;;;9.77;7.77;;;5.60;72.70;;;;;;4954133;29;20181;-68
2022/03/07 18:51:47;;;;;;;9.90;7.67;;;5.60;72.30;;;;;;4954080;29;20667;-68
2022/03/07 18:54:13;;;;;;;9.40;7.07;;;5.60;71.90;;;;;;4954283;29;20204;-67
2022/03/07 18:56:38;;;;;;;8.30;5.30;;;5.50;72.00;;;;;;4953061;29;20256;-68
2022/03/07 18:59:04;;;;;;;12.77;8.30;;;5.60;71.20;;;;;;4954817;28;20328;-67
2022/03/07 19:01:30;;;;;;;13.73;7.57;;;5.60;71.70;;;;;;4954397;29;20212;-68
2022/03/07 19:03:56;;;;;;;17.40;9.23;;;5.50;71.60;;;;;;4954061;29;20169;-69
2022/03/07 19:06:22;;;;;;;6.90;5.73;;;5.60;71.70;;;;;;4953832;28;20543;-68
2022/03/07 19:09:06;;;;;;;7.53;6.10;;;5.60;71.10;;;;;;4954542;28;20192;-68
2022/03/07 19:11:32;;;;;;;18.00;11.90;;;5.60;71.30;;;;;;4954494;28;20199;-68
2022/03/07 19:13:59;;;;;;;14.77;9.57;;;5.50;71.80;;;;;;4954634;28;20169;-68
2022/03/07 19:16:26;;;;;;;28.27;14.50;;;5.50;71.80;;;;;;4954384;28;20189;-68
2022/03/07 19:18:52;;;;;;;13.60;8.40;;;5.50;71.90;;;;;;4954419;28;20188;-67
2022/03/07 19:21:18;;;;;;;7.33;6.23;;;5.50;71.80;;;;;;4954111;29;20715;-68
2022/03/07 19:23:44;;;;;;;6.57;5.90;;;5.40;72.00;;;;;;4953931;28;20173;-68
2022/03/07 19:26:10;;;;;;;10.87;7.27;;;5.40;72.00;;;;;;4954552;29;20184;-68
2022/03/07 19:28:35;;;;;;;13.90;9.53;;;5.40;72.20;;;;;;4953837;29;20229;-68
2022/03/07 19:31:02;;;;;;;7.00;6.27;;;5.40;72.20;;;;;;4953992;29;20180;-68
2022/03/07 19:33:29;;;;;;;11.97;8.10;;;5.30;72.10;;;;;;4954333;28;20192;-68
2022/03/07 19:35:54;;;;;;;10.53;7.13;;;5.30;72.40;;;;;;4954217;29;20227;-68
2022/03/07 19:38:20;;;;;;;9.23;7.13;;;5.30;72.00;;;;;;4954342;28;20185;-68
2022/03/07 19:40:46;;;;;;;15.37;9.37;;;5.30;72.10;;;;;;4954377;28;20208;-68
2022/03/07 19:43:12;;;;;;;21.10;12.07;;;5.30;71.90;;;;;;4954443;28;20191;-68
2022/03/07 19:45:38;;;;;;;14.30;9.07;;;5.30;72.30;;;;;;4954307;28;20176;-68
2022/03/07 19:48:05;;;;;;;13.07;9.00;;;5.20;72.70;;;;;;4955555;28;20304;-68
2022/03/07 19:50:32;;;;;;;16.23;9.63;;;5.20;72.60;;;;;;4956745;29;20173;-69
2022/03/07 19:52:57;;;;;;;16.20;10.00;;;5.20;72.70;;;;;;4957608;29;20231;-68
2022/03/07 19:55:23;;;;;;;11.90;8.60;;;5.20;72.80;;;;;;4957582;28;20263;-68
2022/03/07 19:57:49;;;;;;;16.73;11.33;;;5.20;72.80;;;;;;4957743;29;20185;-68
2022/03/07 20:00:16;;;;;;;14.13;9.03;;;5.20;72.90;;;;;;4957228;28;20173;-68
2022/03/07 20:02:42;;;;;;;10.97;9.13;;;5.20;72.90;;;;;;4957138;28;20220;-68
2022/03/07 20:05:09;;;;;;;12.43;8.67;;;5.20;72.00;;;;;;4957218;29;20184;-67
2022/03/07 20:07:35;;;;;;;9.13;7.27;;;5.20;71.60;;;;;;4957531;28;20207;-68
2022/03/07 20:10:02;;;;;;;14.83;9.73;;;5.10;71.20;;;;;;4957280;28;20232;-68
2022/03/07 20:12:28;;;;;;;17.83;10.23;;;5.20;71.20;;;;;;4956841;28;20180;-68
2022/03/07 20:14:54;;;;;;;14.60;10.80;;;5.20;71.40;;;;;;4957366;28;20515;-68
2022/03/07 20:17:20;;;;;;;9.00;7.87;;;5.20;70.80;;;;;;4957087;28;20203;-68
2022/03/07 20:19:45;;;;;;;11.93;9.80;;;5.20;71.10;;;;;;4957207;29;20249;-68
2022/03/07 20:22:11;;;;;;;11.67;8.40;;;5.10;71.40;;;;;;4956730;28;20216;-68
2022/03/07 20:24:37;;;;;;;14.87;9.90;;;5.10;71.70;;;;;;4957220;28;20274;-68
2022/03/07 20:27:05;;;;;;;14.33;9.87;;;5.00;72.00;;;;;;4956450;28;20228;-68
2022/03/07 20:29:32;;;;;;;14.13;10.23;;;5.00;71.60;;;;;;4957159;28;20521;-68
2022/03/07 20:31:57;;;;;;;13.20;8.67;;;5.00;71.90;;;;;;4956577;28;20261;-69
2022/03/07 20:34:23;;;;;;;12.43;9.67;;;4.90;72.50;;;;;;4957038;29;20180;-68
2022/03/07 20:36:49;;;;;;;10.07;8.63;;;4.90;72.60;;;;;;4956657;29;20582;-68
2022/03/07 20:39:15;;;;;;;9.50;7.13;;;4.90;72.20;;;;;;4957000;29;20216;-68
2022/03/07 20:41:41;;;;;;;13.63;8.93;;;4.90;72.00;;;;;;4956440;29;20311;-68
2022/03/07 20:44:08;;;;;;;10.47;7.97;;;4.90;71.50;;;;;;4956603;28;20227;-69
2022/03/07 20:46:34;;;;;;;11.67;7.87;;;4.90;71.60;;;;;;4956433;29;20648;-68
2022/03/07 20:49:00;;;;;;;9.53;8.40;;;4.90;71.50;;;;;;4956579;28;20172;-68
2022/03/07 20:51:25;;;;;;;12.83;9.07;;;4.90;72.00;;;;;;4956766;28;20183;-68
2022/03/07 20:53:51;;;;;;;13.27;8.33;;;4.80;72.40;;;;;;4956921;28;20652;-69
2022/03/07 20:56:17;;;;;;;15.57;10.00;;;4.80;72.80;;;;;;4956660;29;20181;-68
2022/03/07 20:58:43;;;;;;;9.87;8.87;;;4.80;72.60;;;;;;4955618;28;20176;-69
2022/03/07 21:01:08;;;;;;;12.73;8.57;;;4.70;72.90;;;;;;4955631;29;20201;-68
2022/03/07 21:03:34;;;;;;;11.17;9.03;;;4.70;73.10;;;;;;4956083;29;20536;-68
2022/03/07 21:06:00;;;;;;;13.57;9.77;;;4.70;73.50;;;;;;4956864;28;20172;-69
2022/03/07 21:08:25;;;;;;;10.53;8.70;;;4.60;73.50;;;;;;4956427;28;20711;-68
2022/03/07 21:10:52;;;;;;;15.53;10.20;;;4.60;74.20;;;;;;4956072;28;20208;-69
2022/03/07 21:13:19;;;;;;;11.83;9.23;;;4.60;74.50;;;;;;4955887;28;20258;-68
2022/03/07 21:15:44;;;;;;;19.60;13.00;;;4.50;74.70;;;;;;4955847;28;20189;-68
2022/03/07 21:18:10;;;;;;;21.87;12.37;;;4.50;74.60;;;;;;4956103;28;20180;-68
2022/03/07 21:20:36;;;;;;;17.37;11.63;;;4.40;75.10;;;;;;4955964;28;20535;-68